Osseo, Minnesota
Current Conditions -  °F | °C
As of 2:53 PM on Friday 28 Nov 2014 (Local Time) from KMIC Reporting Station
Overcast Overcast  
Wind Chill: 16°   Ceiling: 2100
Heat Index: 23°   Visibility: 10mi
Dew Point: 14°   Wind: 6mph
Humidity: 68%   Direction: 90°E
Pressure: 29.85"   Gusts: NA
Location:  45.12°N, 93.4°W
Report Text: KMIC 282053Z 09005KT 10SM BKN021 OVC090 M05/M10 A2985 RMK AO2 UPB02E16B22E37 SLP124 P0000 60000 T10501100 55024
Loading
Personal Weather Stations






























Interactive Weather Map New forecast layout! Learn more

10-Day Weather Forecast

Advertisements
Track Severe Weather on mobile